Time;durP1;ratioP1;P1;durP2;ratioP2;P2;SDS_P1;SDS_P2;PMS_P1;PMS_P2;Temp;Humidity;BMP_temperature;BMP_pressure;BME280_temperature;BME280_humidity;BME280_pressure;Samples;Min_cycle;Max_cycle;Signal;HPM_P1;HPM_P2
2023/07/14 00:01:24;;;;;;;5.57;2.58;;;;;;;28.75;43.16;99721.72;4500027;31;33631;-68
2023/07/14 00:03:52;;;;;;;4.50;2.50;;;;;;;28.76;43.14;99728.84;4498200;31;33298;-65
2023/07/14 00:06:20;;;;;;;6.18;2.60;;;;;;;28.74;43.15;99731.88;4498835;31;34620;-64
2023/07/14 00:08:48;;;;;;;4.80;2.70;;;;;;;28.72;43.14;99723.03;4499796;31;33783;-69
2023/07/14 00:11:21;;;;;;;4.72;2.60;;;;;;;28.72;43.13;99723.91;4498793;31;34547;-64
2023/07/14 00:13:49;;;;;;;4.22;2.53;;;;;;;28.72;43.13;99734.87;4485869;31;33307;-64
2023/07/14 00:16:26;;;;;;;5.40;2.50;;;;;;;28.72;43.14;99734.03;4498310;31;33804;-63
2023/07/14 00:18:53;;;;;;;4.22;2.62;;;;;;;28.71;43.15;99735.94;4486097;31;33978;-64
2023/07/14 00:21:23;;;;;;;4.93;2.58;;;;;;;28.71;43.14;99737.88;4498443;31;33830;-64
2023/07/14 00:23:53;;;;;;;5.37;2.75;;;;;;;28.70;43.15;99737.06;4498503;31;32770;-63
2023/07/14 00:26:20;;;;;;;4.80;2.55;;;;;;;28.70;43.14;99728.81;4498550;31;34094;-65
2023/07/14 00:28:49;;;;;;;4.37;2.55;;;;;;;28.69;43.15;99735.41;4498446;31;33824;-65
2023/07/14 00:31:18;;;;;;;4.50;2.50;;;;;;;28.68;43.17;99739.25;4499573;31;34721;-65
2023/07/14 00:33:48;;;;;;;4.20;2.65;;;;;;;28.68;43.18;99744.72;4498566;31;33773;-66
2023/07/14 00:36:17;;;;;;;;;;;;;;;28.68;43.17;99736.50;4498583;31;33845;-64
2023/07/14 00:38:44;;;;;;;4.50;2.55;;;;;;;28.80;42.93;99739.03;4498383;31;34212;-64
2023/07/14 00:41:21;;;;;;;5.65;2.90;;;;;;;28.70;43.12;99736.22;4499508;31;34898;-63
2023/07/14 00:43:50;;;;;;;5.72;2.72;;;;;;;28.68;43.17;99739.25;4499641;31;33627;-64
2023/07/14 00:46:24;;;;;;;6.35;2.62;;;;;;;28.66;43.20;99735.09;4498359;31;33624;-66
2023/07/14 00:48:53;;;;;;;5.65;2.45;;;;;;;28.66;43.19;99735.09;4499374;31;33617;-66
2023/07/14 00:51:21;;;;;;;4.20;2.60;;;;;;;28.64;43.22;99732.63;4485340;31;34958;-71
2023/07/14 00:53:48;;;;;;;5.43;2.10;;;;;;;28.66;43.20;99735.09;4498200;31;33431;-69
2023/07/14 00:56:33;;;;;;;5.25;2.92;;;;;;;28.65;43.21;99738.94;4499210;31;33980;-65
2023/07/14 00:59:01;;;;;;;4.97;2.75;;;;;;;28.65;43.21;99733.44;4498258;31;33606;-69
2023/07/14 01:01:31;;;;;;;6.10;2.75;;;;;;;28.64;43.21;99726.31;4497970;31;33932;-65
2023/07/14 01:03:59;;;;;;;5.07;2.80;;;;;;;28.63;43.23;99730.12;4499515;31;34110;-66
2023/07/14 01:06:35;;;;;;;5.65;2.60;;;;;;;28.63;43.21;99724.63;4499151;31;33964;-69
2023/07/14 01:09:08;;;;;;;5.10;2.72;;;;;;;28.63;43.22;99733.72;4499071;31;33661;-68
2023/07/14 01:11:45;;;;;;;5.70;2.55;;;;;;;28.62;43.25;99731.22;4499188;31;34546;-68
2023/07/14 01:14:17;;;;;;;5.82;2.80;;;;;;;28.62;43.22;99734.78;4498905;31;33069;-67
2023/07/14 01:16:46;;;;;;;5.03;2.50;;;;;;;28.61;43.26;99740.53;4498794;31;34552;-70
2023/07/14 01:19:28;;;;;;;4.65;2.65;;;;;;;28.61;43.25;99746.88;4501095;31;33926;-68
2023/07/14 01:22:05;;;;;;;6.80;2.58;;;;;;;28.61;43.24;99741.37;4500048;31;34546;-70
2023/07/14 01:24:37;;;;;;;4.45;2.45;;;;;;;28.61;43.24;99743.28;4487266;31;33067;-70
2023/07/14 01:27:07;;;;;;;4.75;2.83;;;;;;;28.58;43.25;99744.63;4487268;31;33819;-67
2023/07/14 01:29:35;;;;;;;6.32;2.85;;;;;;;28.59;43.24;99746.31;4499956;31;33978;-69
2023/07/14 01:32:08;;;;;;;4.97;2.53;;;;;;;28.59;43.22;99743.56;4486458;31;34861;-65
2023/07/14 01:34:37;;;;;;;5.22;2.95;;;;;;;28.57;43.24;99742.97;4487428;31;34390;-68
2023/07/14 01:37:05;;;;;;;;;;;;;;;28.58;43.21;99744.63;4500194;31;34953;-70
2023/07/14 01:39:35;;;;;;;5.00;2.80;;;;;;;28.68;43.00;99746.66;4501149;31;33729;-70
2023/07/14 01:42:03;;;;;;;5.10;2.80;;;;;;;28.59;43.16;99746.31;4500984;31;34148;-67
2023/07/14 01:44:30;;;;;;;4.70;2.85;;;;;;;28.57;43.24;99744.91;4500979;31;32661;-69
2023/07/14 01:46:58;;;;;;;5.82;2.85;;;;;;;28.56;43.27;99748.75;4501295;31;34728;-67
2023/07/14 01:49:38;;;;;;;5.03;2.80;;;;;;;28.54;43.25;99737.19;4499734;31;33898;-64
2023/07/14 01:52:07;;;;;;;;;;;;;;;28.55;43.22;99745.16;4500015;31;34589;-65
2023/07/14 01:54:38;;;;;;;5.53;2.87;;;;;;;28.63;43.02;99747.44;4501131;31;33394;-64
2023/07/14 01:57:12;;;;;;;4.15;2.85;;;;;;;28.54;43.19;99740.78;4483764;32;33731;-63
2023/07/14 01:59:45;;;;;;;4.78;2.83;;;;;;;28.51;43.23;99741.28;4471656;32;33872;-64
2023/07/14 02:02:22;;;;;;;4.75;3.08;;;;;;;28.51;43.24;99744.03;4483993;32;33472;-65
2023/07/14 02:04:51;;;;;;;6.45;3.40;;;;;;;28.52;43.20;99745.69;4484110;32;33056;-64
2023/07/14 02:07:19;;;;;;;5.22;2.90;;;;;;;28.50;43.19;99742.37;4471004;32;33874;-64
2023/07/14 02:09:47;;;;;;;5.78;3.30;;;;;;;28.51;43.17;99745.97;4485197;32;33968;-65
2023/07/14 02:12:16;;;;;;;4.87;3.08;;;;;;;28.50;43.17;99753.38;4471072;32;33700;-65
2023/07/14 02:14:54;;;;;;;5.32;3.28;;;;;;;28.49;43.16;99754.44;4485366;32;33750;-64
2023/07/14 02:17:33;;;;;;;7.47;3.45;;;;;;;28.51;43.09;99754.19;4471299;32;33413;-64
2023/07/14 02:20:05;;;;;;;6.15;3.03;;;;;;;28.51;43.04;99757.75;4471019;32;34850;-65
2023/07/14 02:22:33;;;;;;;6.30;3.20;;;;;;;28.49;43.10;99762.66;4483461;31;34263;-65
2023/07/14 02:25:04;;;;;;;4.85;2.85;;;;;;;28.47;43.07;99760.19;4470920;32;34290;-64
2023/07/14 02:27:31;;;;;;;4.43;2.80;;;;;;;28.48;43.04;99769.25;4484703;32;34741;-70
2023/07/14 02:30:12;;;;;;;5.93;3.40;;;;;;;28.48;43.02;99769.25;4484736;32;33978;-64
2023/07/14 02:32:44;;;;;;;4.95;3.05;;;;;;;28.49;43.00;99765.41;4483839;32;34485;-64
2023/07/14 02:35:33;;;;;;;5.68;3.03;;;;;;;28.48;42.98;99777.50;4471017;32;34176;-71
2023/07/14 02:38:04;;;;;;;4.82;3.20;;;;;;;28.48;42.97;99772.00;4483530;32;34211;-67
2023/07/14 02:40:39;;;;;;;7.70;3.10;;;;;;;28.47;42.95;99781.31;4484933;32;34962;-65
2023/07/14 02:43:08;;;;;;;7.07;3.03;;;;;;;28.45;42.97;99778.84;4483637;32;34376;-64
2023/07/14 02:46:01;;;;;;;5.95;3.33;;;;;;;28.46;42.95;99790.66;4484676;32;34481;-64
2023/07/14 02:48:39;;;;;;;5.80;3.08;;;;;;;28.46;42.93;99793.41;4480432;31;34108;-65
2023/07/14 02:51:07;;;;;;;5.03;3.03;;;;;;;28.47;42.88;99806.03;4483628;32;33751;-65
2023/07/14 02:53:35;;;;;;;6.37;3.78;;;;;;;28.46;42.86;99801.63;4484694;32;33836;-64
2023/07/14 02:56:03;;;;;;;5.57;3.33;;;;;;;28.43;42.89;99792.00;4484181;31;34164;-64
2023/07/14 02:58:31;;;;;;;5.57;3.03;;;;;;;28.44;42.86;99790.91;4486371;31;33770;-64
2023/07/14 03:00:59;;;;;;;5.07;3.10;;;;;;;28.43;42.86;99799.41;4500566;31;33943;-64
2023/07/14 03:03:27;;;;;;;5.50;3.00;;;;;;;28.43;42.85;99802.16;4500330;31;33865;-64
2023/07/14 03:05:55;;;;;;;6.80;3.00;;;;;;;28.41;42.84;99796.09;4500796;31;33728;-65
2023/07/14 03:08:23;;;;;;;5.05;3.20;;;;;;;28.41;42.84;99791.44;4500507;31;33636;-63
2023/07/14 03:10:55;;;;;;;6.18;3.20;;;;;;;28.40;42.83;99799.94;4500329;31;33908;-64
2023/07/14 03:13:23;;;;;;;6.10;3.37;;;;;;;28.39;42.85;99801.81;4500557;31;34272;-64
2023/07/14 03:15:51;;;;;;;6.30;3.00;;;;;;;28.40;42.82;99799.94;4500438;31;33420;-64
2023/07/14 03:18:19;;;;;;;6.05;3.22;;;;;;;28.39;42.81;99799.09;4500124;31;34581;-64
2023/07/14 03:20:48;;;;;;;7.78;3.12;;;;;;;28.39;42.81;99798.25;4500381;31;34770;-64
2023/07/14 03:23:16;;;;;;;7.65;2.87;;;;;;;28.37;42.82;99801.28;4499138;31;33805;-64
2023/07/14 03:25:43;;;;;;;5.12;2.90;;;;;;;28.39;42.74;99804.56;4500129;31;34239;-64
2023/07/14 03:28:11;;;;;;;5.60;3.10;;;;;;;28.39;42.74;99806.50;4500381;31;33961;-71
2023/07/14 03:30:40;;;;;;;5.62;2.58;;;;;;;28.38;42.72;99805.66;4500202;31;34697;-69
2023/07/14 03:33:08;;;;;;;5.78;3.20;;;;;;;28.38;42.71;99813.06;4500450;31;33948;-71
2023/07/14 03:35:35;;;;;;;5.03;3.00;;;;;;;28.38;42.67;99802.94;4500343;31;34024;-63
2023/07/14 03:38:03;;;;;;;6.00;3.00;;;;;;;28.39;42.67;99803.75;4499877;31;34363;-64
2023/07/14 03:40:31;;;;;;;4.80;2.85;;;;;;;28.38;42.65;99810.34;4499516;31;33865;-68
2023/07/14 03:43:00;;;;;;;6.55;3.12;;;;;;;28.37;42.66;99806.75;4500205;31;33892;-64
2023/07/14 03:45:27;;;;;;;7.20;3.05;;;;;;;28.37;42.66;99809.50;4499064;31;34152;-64
2023/07/14 03:47:54;;;;;;;6.32;2.83;;;;;;;28.38;42.64;99815.81;4498807;31;34083;-64
2023/07/14 03:50:22;;;;;;;5.12;2.90;;;;;;;28.36;42.65;99810.59;4500242;31;34547;-65
2023/07/14 03:52:50;;;;;;;5.95;3.15;;;;;;;28.37;42.63;99816.91;4489371;31;33619;-67
2023/07/14 03:55:17;;;;;;;5.20;2.58;;;;;;;28.36;42.65;99818.00;4483009;32;33351;-64
2023/07/14 03:57:45;;;;;;;5.25;2.90;;;;;;;28.36;42.62;99816.09;4496171;31;34073;-68
2023/07/14 04:00:30;;;;;;;4.78;2.80;;;;;;;28.36;42.62;99823.50;4499926;31;34060;-71
2023/07/14 04:02:58;;;;;;;5.17;2.80;;;;;;;28.36;42.60;99809.78;4500080;31;33863;-65
2023/07/14 04:05:27;;;;;;;5.07;2.97;;;;;;;28.36;42.56;99813.34;4500090;31;33949;-70
2023/07/14 04:07:57;;;;;;;5.05;2.83;;;;;;;28.35;42.58;99814.44;4498628;31;34040;-69
2023/07/14 04:10:25;;;;;;;5.60;2.50;;;;;;;28.34;42.57;99810.00;4499949;31;34060;-71
2023/07/14 04:12:52;;;;;;;5.82;2.70;;;;;;;28.34;42.57;99817.37;4499754;31;33621;-71
2023/07/14 04:15:21;;;;;;;4.20;2.22;;;;;;;28.34;42.56;99820.13;4499850;31;33551;-70
2023/07/14 04:17:49;;;;;;;5.82;2.58;;;;;;;28.34;42.55;99822.88;4499907;31;34879;-71
2023/07/14 04:20:17;;;;;;;5.07;2.62;;;;;;;28.35;42.52;99828.16;4499848;31;34482;-65
2023/07/14 04:22:45;;;;;;;4.85;2.55;;;;;;;28.34;42.53;99826.47;4499680;31;33600;-70
2023/07/14 04:25:13;;;;;;;6.03;2.62;;;;;;;28.34;42.52;99825.63;4499775;31;33516;-70
2023/07/14 04:27:40;;;;;;;4.90;3.12;;;;;;;28.34;42.50;99822.88;4499670;31;34020;-69
2023/07/14 04:30:08;;;;;;;6.07;3.20;;;;;;;28.32;42.50;99823.16;4499595;31;33776;-65
2023/07/14 04:32:36;;;;;;;4.82;2.35;;;;;;;28.34;42.51;99825.63;4499766;31;34527;-71
2023/07/14 04:35:04;;;;;;;4.65;2.62;;;;;;;28.34;42.52;99831.09;4497066;31;33746;-64
2023/07/14 04:37:32;;;;;;;4.57;2.65;;;;;;;28.34;42.55;99842.94;4484682;31;34591;-68
2023/07/14 04:40:00;;;;;;;6.40;2.90;;;;;;;28.35;42.55;99843.78;4483720;32;33637;-69
2023/07/14 04:42:27;;;;;;;5.07;3.05;;;;;;;28.35;42.57;99850.13;4483611;32;34152;-70
2023/07/14 04:44:55;;;;;;;5.12;2.50;;;;;;;28.34;42.59;99851.19;4483895;32;32576;-70
2023/07/14 04:47:22;;;;;;;5.57;3.20;;;;;;;28.34;42.62;99853.06;4483981;32;33980;-71
2023/07/14 04:49:50;;;;;;;5.12;2.50;;;;;;;28.35;42.64;99852.00;4483765;32;34002;-64
2023/07/14 04:52:18;;;;;;;4.45;2.35;;;;;;;28.35;42.66;99849.25;4491695;31;34082;-64
2023/07/14 04:54:46;;;;;;;4.97;2.95;;;;;;;28.35;42.67;99854.75;4501413;31;33563;-70
2023/07/14 04:57:14;;;;;;;4.18;2.72;;;;;;;28.35;42.72;99854.75;4492765;31;34999;-64
2023/07/14 04:59:43;;;;;;;6.15;2.80;;;;;;;28.35;42.75;99863.84;4485504;32;34102;-64
2023/07/14 05:02:10;;;;;;;6.53;2.80;;;;;;;28.34;42.77;99875.00;4485678;32;34681;-63
2023/07/14 05:04:40;;;;;;;5.00;3.00;;;;;;;28.35;42.78;99868.47;4485615;32;33091;-71
2023/07/14 05:07:27;;;;;;;6.12;2.80;;;;;;;28.34;42.85;99881.38;4484520;32;33629;-70
2023/07/14 05:09:54;;;;;;;7.80;3.03;;;;;;;28.37;42.84;99880.03;4485372;32;33807;-70
2023/07/14 05:12:22;;;;;;;6.50;2.95;;;;;;;28.35;42.91;99885.78;4485548;32;34439;-71
2023/07/14 05:14:50;;;;;;;4.85;2.60;;;;;;;28.36;42.93;99889.34;4485542;32;33526;-70
2023/07/14 05:17:17;;;;;;;5.95;3.10;;;;;;;28.36;42.95;99883.88;4485153;32;33942;-67
2023/07/14 05:19:45;;;;;;;5.25;3.12;;;;;;;28.36;42.96;99892.09;4485292;32;34103;-71
2023/07/14 05:22:13;;;;;;;6.60;3.03;;;;;;;28.37;42.98;99891.00;4485384;32;33703;-69
2023/07/14 05:24:40;;;;;;;4.60;3.00;;;;;;;28.36;42.99;99898.41;4483971;32;33586;-69
2023/07/14 05:27:08;;;;;;;4.22;2.80;;;;;;;28.38;43.01;99898.97;4485411;32;33806;-69
2023/07/14 05:29:35;;;;;;;7.80;3.10;;;;;;;28.38;43.06;99906.38;4485636;32;34021;-70
2023/07/14 05:32:03;;;;;;;5.37;3.15;;;;;;;28.36;43.09;99903.91;4485209;32;33696;-70
2023/07/14 05:34:31;;;;;;;6.45;3.00;;;;;;;28.37;43.12;99904.72;4483581;32;32978;-66
2023/07/14 05:36:59;;;;;;;5.72;2.67;;;;;;;28.38;43.11;99892.66;4484117;31;33193;-66
2023/07/14 05:39:28;;;;;;;5.07;2.72;;;;;;;28.37;43.13;99891.84;4483662;32;33821;-65
2023/07/14 05:41:58;;;;;;;6.20;3.28;;;;;;;28.39;43.12;99899.81;4480704;31;34575;-70
2023/07/14 05:44:26;;;;;;;5.32;2.97;;;;;;;28.38;43.10;99903.63;4483813;31;34047;-66
2023/07/14 05:46:54;;;;;;;4.57;2.85;;;;;;;28.39;43.09;99902.53;4484007;32;33819;-64
2023/07/14 05:49:22;;;;;;;5.75;3.12;;;;;;;28.40;43.10;99898.75;4484343;32;34892;-64
2023/07/14 05:51:50;;;;;;;6.18;3.15;;;;;;;28.40;43.09;99901.47;4485170;32;33275;-65
2023/07/14 05:54:19;;;;;;;6.85;3.35;;;;;;;28.39;43.11;99897.88;4484443;32;33303;-69
2023/07/14 05:56:47;;;;;;;7.05;3.15;;;;;;;28.41;43.10;99905.88;4481203;31;34764;-71
2023/07/14 05:59:14;;;;;;;7.72;3.33;;;;;;;28.41;43.11;99911.38;4484160;32;34885;-65
2023/07/14 06:01:42;;;;;;;4.78;2.87;;;;;;;28.41;43.11;99903.97;4483346;32;33477;-70
2023/07/14 06:04:10;;;;;;;5.12;2.97;;;;;;;28.42;43.12;99908.34;4484462;32;33267;-65
2023/07/14 06:06:37;;;;;;;5.53;3.30;;;;;;;28.42;43.13;99907.53;4483521;31;33944;-68
2023/07/14 06:09:05;;;;;;;4.90;3.05;;;;;;;28.42;43.13;99900.13;4484292;32;34675;-66
2023/07/14 06:11:33;;;;;;;6.07;3.58;;;;;;;28.43;43.15;99901.78;4485123;32;33996;-71
2023/07/14 06:14:00;;;;;;;5.75;3.25;;;;;;;28.43;43.16;99909.19;4484356;32;34055;-71
2023/07/14 06:16:28;;;;;;;5.68;3.20;;;;;;;28.42;43.16;99905.62;4484228;32;33802;-66
2023/07/14 06:18:56;;;;;;;6.95;3.28;;;;;;;28.43;43.17;99906.44;4484303;32;33888;-65
2023/07/14 06:21:23;;;;;;;5.57;3.47;;;;;;;28.44;43.17;99916.31;4483961;32;34516;-65
2023/07/14 06:23:51;;;;;;;6.00;3.17;;;;;;;28.43;43.18;99918.25;4485019;32;33316;-65
2023/07/14 06:26:18;;;;;;;5.60;3.10;;;;;;;28.45;43.17;99918.00;4484367;32;34948;-66
2023/07/14 06:28:46;;;;;;;5.62;3.50;;;;;;;28.44;43.19;99919.88;4482220;31;34002;-68
2023/07/14 06:31:13;;;;;;;5.62;3.03;;;;;;;28.45;43.19;99924.31;4492160;31;34179;-66
2023/07/14 06:33:41;;;;;;;6.60;3.70;;;;;;;28.44;43.21;99925.37;4485831;31;34589;-67
2023/07/14 06:36:09;;;;;;;6.75;3.37;;;;;;;28.45;43.21;99921.56;4499987;31;33575;-65
2023/07/14 06:38:36;;;;;;;6.32;3.55;;;;;;;28.46;43.21;99927.88;4499231;31;34123;-65
2023/07/14 06:41:07;;;;;;;5.78;3.20;;;;;;;28.46;43.23;99923.22;4500604;31;34131;-66
2023/07/14 06:43:34;;;;;;;5.53;3.25;;;;;;;28.46;43.23;99934.19;4499997;31;33560;-65
2023/07/14 06:46:02;;;;;;;4.80;3.15;;;;;;;28.47;43.23;99935.03;4500624;31;33998;-66
2023/07/14 06:48:30;;;;;;;5.28;3.30;;;;;;;28.46;43.24;99928.72;4498956;31;34125;-64
2023/07/14 06:50:57;;;;;;;6.95;3.30;;;;;;;28.47;43.26;99929.53;4497554;31;33930;-64
2023/07/14 06:53:25;;;;;;;6.72;3.42;;;;;;;28.47;43.25;99927.63;4500710;31;33333;-64
2023/07/14 06:55:54;;;;;;;5.12;3.20;;;;;;;28.48;43.25;99928.44;4499588;31;34551;-64
2023/07/14 06:58:25;;;;;;;5.43;3.33;;;;;;;28.47;43.27;99930.38;4500429;31;34010;-72
2023/07/14 07:00:53;;;;;;;5.87;3.47;;;;;;;28.48;43.24;99923.78;4499908;31;34073;-64
2023/07/14 07:03:21;;;;;;;7.25;3.28;;;;;;;28.51;43.23;99927.13;4500841;31;33484;-66
2023/07/14 07:05:50;;;;;;;6.05;3.30;;;;;;;28.50;43.25;99928.22;4498832;31;34623;-64
2023/07/14 07:08:19;;;;;;;4.62;3.12;;;;;;;28.50;43.26;99925.47;4499424;31;33753;-72
2023/07/14 07:10:49;;;;;;;5.30;3.10;;;;;;;28.50;43.31;99922.72;4499835;31;34620;-64
2023/07/14 07:13:16;;;;;;;6.22;3.45;;;;;;;28.50;43.32;99929.03;4499684;31;33866;-66
2023/07/14 07:15:44;;;;;;;5.60;3.37;;;;;;;28.52;43.31;99928.78;4498417;31;33920;-66
2023/07/14 07:18:14;;;;;;;6.68;3.42;;;;;;;28.51;43.31;99927.94;4500360;31;34739;-65
2023/07/14 07:20:42;;;;;;;5.18;3.40;;;;;;;28.53;43.30;99939.47;4498076;31;34649;-66
2023/07/14 07:23:10;;;;;;;4.87;3.15;;;;;;;28.54;43.29;99941.16;4499239;31;33201;-66
2023/07/14 07:25:44;;;;;;;5.47;3.50;;;;;;;28.53;43.28;99939.47;4496879;31;34574;-66
2023/07/14 07:28:12;;;;;;;5.22;3.10;;;;;;;28.55;43.27;99936.50;4490838;31;33689;-70
2023/07/14 07:30:40;;;;;;;5.03;3.10;;;;;;;28.56;43.28;99935.41;4487271;31;33745;-66
2023/07/14 07:33:07;;;;;;;7.05;3.30;;;;;;;28.57;43.27;99939.81;4500049;31;33524;-66
2023/07/14 07:35:40;;;;;;;4.93;3.15;;;;;;;28.57;43.26;99940.63;4498836;31;34689;-65
2023/07/14 07:38:10;;;;;;;5.55;3.37;;;;;;;28.57;43.29;99932.41;4485772;31;34060;-71
2023/07/14 07:40:38;;;;;;;;;;;;;;;28.58;43.27;99930.47;4500611;31;33644;-68
2023/07/14 07:43:06;;;;;;;5.97;3.08;;;;;;;28.70;43.03;99940.22;4498598;31;33132;-70
2023/07/14 07:45:33;;;;;;;4.15;2.70;;;;;;;28.61;43.20;99936.28;4485861;31;33899;-66
2023/07/14 07:48:01;;;;;;;5.95;3.22;;;;;;;28.60;43.26;99937.38;4499108;31;34929;-70
2023/07/14 07:50:29;;;;;;;5.78;3.05;;;;;;;28.61;43.28;99940.94;4485789;31;33776;-71
2023/07/14 07:52:56;;;;;;;4.50;2.92;;;;;;;28.60;43.29;99940.13;4498639;31;33503;-65
2023/07/14 07:55:24;;;;;;;4.95;3.17;;;;;;;28.61;43.29;99930.78;4499442;31;33889;-70
2023/07/14 07:57:52;;;;;;;5.68;3.15;;;;;;;28.62;43.32;99937.94;4500388;31;33897;-65
2023/07/14 08:00:19;;;;;;;5.07;3.25;;;;;;;28.63;43.33;99936.88;4497290;31;34819;-69
2023/07/14 08:02:47;;;;;;;6.25;3.17;;;;;;;28.64;43.34;99932.22;4499970;31;33967;-64
2023/07/14 08:05:15;;;;;;;4.87;2.70;;;;;;;28.64;43.34;99929.47;4500080;31;34091;-67
2023/07/14 08:07:43;;;;;;;6.12;3.50;;;;;;;28.65;43.35;99931.94;4499788;31;34990;-64
2023/07/14 08:10:10;;;;;;;5.85;2.67;;;;;;;28.65;43.38;99937.44;4499957;31;34303;-64
2023/07/14 08:12:38;;;;;;;5.55;2.75;;;;;;;28.66;43.39;99932.78;4499971;31;33709;-65
2023/07/14 08:15:07;;;;;;;4.30;2.65;;;;;;;28.67;43.41;99940.72;4499963;31;34005;-64
2023/07/14 08:17:38;;;;;;;8.30;3.17;;;;;;;28.67;43.42;99940.72;4485690;31;33623;-66
2023/07/14 08:20:07;;;;;;;5.78;3.12;;;;;;;28.69;43.41;99937.75;4457854;32;34658;-64
2023/07/14 08:22:35;;;;;;;4.97;2.97;;;;;;;28.69;43.45;99943.25;4497567;31;32978;-65
2023/07/14 08:25:03;;;;;;;5.78;2.60;;;;;;;28.70;43.44;99933.91;4499300;31;33830;-65
2023/07/14 08:27:30;;;;;;;6.03;2.80;;;;;;;28.70;43.46;99934.75;4499546;31;34716;-72
2023/07/14 08:29:59;;;;;;;6.35;3.05;;;;;;;28.70;43.49;99929.25;4499599;31;33598;-65
2023/07/14 08:32:26;;;;;;;5.15;3.37;;;;;;;28.71;43.49;99935.56;4499605;31;34221;-65
2023/07/14 08:34:54;;;;;;;5.97;2.90;;;;;;;28.71;43.51;99930.91;4499479;31;34030;-70
2023/07/14 08:37:22;;;;;;;7.03;2.95;;;;;;;28.72;43.53;99931.72;4498737;31;33550;-64
2023/07/14 08:39:49;;;;;;;5.30;2.80;;;;;;;28.72;43.55;99937.22;4499306;31;34739;-63
2023/07/14 08:42:49;;;;;;;6.10;2.92;;;;;;;28.72;43.56;99934.47;4499398;31;33266;-66
2023/07/14 08:45:25;;;;;;;;;;;;;;;28.75;43.52;99936.72;4494063;31;33667;-70
2023/07/14 08:48:11;;;;;;;5.65;3.20;;;;;;;28.83;43.34;99936.25;4498046;31;34112;-64
2023/07/14 08:50:38;;;;;;;6.03;3.35;;;;;;;28.75;43.54;99935.88;4477786;32;33564;-70
2023/07/14 08:53:09;;;;;;;5.87;2.83;;;;;;;28.73;43.61;99941.66;4469371;32;33138;-67
2023/07/14 08:55:37;;;;;;;4.85;2.90;;;;;;;28.71;43.66;99938.31;4482528;32;34011;-65
2023/07/14 08:58:18;;;;;;;5.65;2.83;;;;;;;28.72;43.66;99938.06;4482494;31;34732;-65
2023/07/14 09:00:49;;;;;;;5.07;3.10;;;;;;;28.75;43.66;99944.12;4491079;31;34345;-65
2023/07/14 09:03:16;;;;;;;5.82;3.08;;;;;;;28.72;43.70;99940.81;4483523;32;33659;-65
2023/07/14 09:05:49;;;;;;;7.75;2.80;;;;;;;28.73;43.68;99945.22;4483395;32;33923;-65
2023/07/14 09:08:17;;;;;;;5.97;3.30;;;;;;;28.72;43.73;99943.56;4482273;32;33722;-65
2023/07/14 09:10:58;;;;;;;5.82;3.10;;;;;;;28.73;43.72;99956.19;4483464;31;33525;-70
2023/07/14 09:14:00;;;;;;;4.65;2.83;;;;;;;28.75;43.74;99949.63;4482343;32;33340;-67
2023/07/14 09:16:28;;;;;;;5.30;3.17;;;;;;;28.80;43.63;99953.22;4471401;32;33670;-65
2023/07/14 09:19:15;;;;;;;4.70;2.83;;;;;;;28.77;43.65;99948.25;4471723;32;34065;-65
2023/07/14 09:21:49;;;;;;;6.78;3.30;;;;;;;28.77;43.65;99952.91;4492344;31;33541;-66
2023/07/14 09:24:31;;;;;;;6.43;2.83;;;;;;;28.77;43.62;99947.44;4497844;31;34187;-65
2023/07/14 09:26:58;;;;;;;5.07;2.97;;;;;;;28.78;43.60;99946.34;4497740;31;34611;-64
2023/07/14 09:29:41;;;;;;;7.87;3.22;;;;;;;28.76;43.58;99948.50;4499032;31;33493;-65
2023/07/14 09:32:20;;;;;;;6.03;2.95;;;;;;;28.77;43.55;99948.25;4481133;32;34518;-65
2023/07/14 09:34:58;;;;;;;6.82;3.00;;;;;;;28.78;43.49;99947.19;4483090;32;34291;-64
2023/07/14 09:37:31;;;;;;;5.18;3.08;;;;;;;28.79;43.46;99950.75;4483785;32;33679;-65
2023/07/14 09:40:17;;;;;;;5.15;3.00;;;;;;;28.76;43.46;99938.34;4471633;32;34892;-65
2023/07/14 09:42:50;;;;;;;5.53;3.00;;;;;;;28.80;43.36;99933.19;4487650;31;34319;-66
2023/07/14 09:45:20;;;;;;;4.25;2.95;;;;;;;28.78;43.36;99936.19;4500990;31;33505;-68
2023/07/14 09:47:51;;;;;;;4.82;2.75;;;;;;;28.77;43.28;99930.94;4501207;31;33611;-65
2023/07/14 09:50:19;;;;;;;4.25;2.67;;;;;;;28.79;43.19;99934.28;4487034;31;34647;-65
2023/07/14 09:52:57;;;;;;;5.53;2.83;;;;;;;28.79;43.10;99931.53;4489327;31;34853;-66
2023/07/14 09:55:25;;;;;;;4.70;2.83;;;;;;;28.80;43.03;99927.69;4499806;31;33232;-65
2023/07/14 09:57:53;;;;;;;3.50;2.67;;;;;;;28.80;43.00;99927.69;4499795;31;33896;-64
2023/07/14 10:00:39;;;;;;;5.50;3.00;;;;;;;28.79;43.00;99923.28;4500914;31;34437;-72
2023/07/14 10:03:09;;;;;;;4.30;2.53;;;;;;;28.80;42.96;99930.44;4494234;31;33659;-69
2023/07/14 10:05:44;;;;;;;7.55;3.10;;;;;;;28.80;42.94;99924.94;4490094;31;33224;-72
2023/07/14 10:08:30;;;;;;;4.72;2.85;;;;;;;28.81;42.93;99926.59;4495906;31;33968;-68
2023/07/14 10:11:11;;;;;;;8.57;3.12;;;;;;;28.82;42.89;99931.84;4489862;31;33935;-72
2023/07/14 10:13:40;;;;;;;6.80;3.22;;;;;;;28.79;42.91;99921.38;4500865;31;33996;-72
2023/07/14 10:16:14;;;;;;;6.28;2.90;;;;;;;28.80;42.93;99917.53;4500778;31;34488;-71
2023/07/14 10:19:05;;;;;;;4.87;2.75;;;;;;;28.80;42.93;99917.53;4499652;31;34756;-67
2023/07/14 10:21:35;;;;;;;4.47;2.50;;;;;;;28.84;42.87;99917.84;4490378;31;34522;-65
2023/07/14 10:24:06;;;;;;;;;;;;;;;28.82;42.93;99914.53;4485734;32;33709;-71
2023/07/14 10:26:36;;;;;;;5.15;2.45;;;;;;;28.92;42.74;99914.63;4485044;32;33855;-71
2023/07/14 10:29:05;;;;;;;4.95;2.83;;;;;;;28.84;42.93;99906.88;4485040;32;33958;-71
2023/07/14 10:31:42;;;;;;;4.37;2.55;;;;;;;28.82;43.03;99917.25;4485103;32;34080;-72
2023/07/14 10:34:15;;;;;;;4.95;2.90;;;;;;;28.82;43.07;99912.63;4483593;32;34044;-72
2023/07/14 10:36:43;;;;;;;6.60;2.92;;;;;;;28.84;43.12;99904.13;4483750;32;34245;-72
2023/07/14 10:39:13;;;;;;;5.82;2.70;;;;;;;28.83;43.15;99906.03;4484890;32;33709;-70
2023/07/14 10:41:43;;;;;;;5.80;2.65;;;;;;;28.82;43.22;99901.66;4483660;32;35437;-71
2023/07/14 10:44:27;;;;;;;4.47;2.50;;;;;;;28.82;43.25;99898.91;4484695;32;34948;-64
2023/07/14 10:46:57;;;;;;;5.18;2.87;;;;;;;28.85;43.28;99895.59;4471800;32;33298;-64
2023/07/14 10:49:27;;;;;;;8.10;3.00;;;;;;;28.84;43.31;99893.13;4470493;32;33932;-63
2023/07/14 10:52:09;;;;;;;6.97;2.97;;;;;;;28.83;43.35;99886.00;4483384;32;33857;-63
2023/07/14 10:55:03;;;;;;;6.05;2.87;;;;;;;28.85;43.37;99898.34;4483675;32;33986;-64
2023/07/14 10:57:42;;;;;;;5.68;2.67;;;;;;;28.87;43.40;99889.88;4489856;31;34178;-65
2023/07/14 11:00:23;;;;;;;5.22;2.60;;;;;;;28.85;43.47;99886.53;4500538;31;33599;-64
2023/07/14 11:02:59;;;;;;;5.00;2.70;;;;;;;28.87;43.52;99884.38;4500460;31;34717;-65
2023/07/14 11:05:27;;;;;;;5.35;2.75;;;;;;;28.86;43.56;99885.44;4499210;31;34638;-63
2023/07/14 11:07:55;;;;;;;5.07;2.47;;;;;;;28.85;43.58;99884.63;4485890;31;34210;-64
2023/07/14 11:10:47;;;;;;;4.68;2.62;;;;;;;28.86;43.62;99879.97;4500588;31;34075;-71
2023/07/14 11:13:23;;;;;;;4.75;2.85;;;;;;;28.86;43.67;99878.03;4499179;31;33332;-64
2023/07/14 11:15:53;;;;;;;5.25;2.90;;;;;;;28.86;43.72;99867.06;4499298;31;34619;-72
2023/07/14 11:18:51;;;;;;;6.87;2.80;;;;;;;28.87;43.75;99878.87;4486356;31;34226;-72
2023/07/14 11:22:16;;;;;;;3.87;2.50;;;;;;;28.87;43.82;99873.41;4492256;31;34720;-66
2023/07/14 11:25:05;;;;;;;5.00;2.67;;;;;;;28.92;43.77;99870.69;4458556;31;34672;-71
2023/07/14 11:27:37;;;;;;;6.00;2.78;;;;;;;28.90;43.86;99870.09;4500435;31;34553;-72
2023/07/14 11:30:22;;;;;;;5.00;2.75;;;;;;;28.89;43.95;99868.47;4499193;31;34926;-72
2023/07/14 11:33:24;;;;;;;5.18;3.00;;;;;;;28.90;43.95;99875.59;4486294;31;33961;-71
2023/07/14 11:36:05;;;;;;;6.75;2.78;;;;;;;28.92;43.92;99871.53;4459336;31;34852;-72
2023/07/14 11:38:50;;;;;;;4.47;2.85;;;;;;;28.88;44.07;99872.31;4499193;31;34164;-63
2023/07/14 11:41:18;;;;;;;5.00;3.25;;;;;;;28.91;44.06;99874.50;4499097;31;33753;-70
2023/07/14 11:43:46;;;;;;;6.22;2.95;;;;;;;28.88;44.12;99862.13;4498301;31;33526;-64
2023/07/14 11:46:16;;;;;;;6.03;3.05;;;;;;;28.89;44.16;99865.72;4498702;31;34120;-69
2023/07/14 11:48:50;;;;;;;4.65;2.67;;;;;;;28.88;44.18;99859.41;4485859;31;34086;-72
2023/07/14 11:51:18;;;;;;;4.68;2.67;;;;;;;28.90;44.20;99859.13;4500218;31;34153;-71
2023/07/14 11:54:15;;;;;;;7.10;2.90;;;;;;;28.90;44.21;99862.69;4499282;31;34580;-68